sensor_id;sensor_type;location;lat;lon;timestamp;temperature;humidity
21090;DHT22;10703;51.020;6.128;2023-03-14T00:01:24;10.30;99.90
21090;DHT22;10703;51.020;6.128;2023-03-14T00:03:51;9.70;99.90
21090;DHT22;10703;51.020;6.128;2023-03-14T00:06:18;9.40;99.90
21090;DHT22;10703;51.020;6.128;2023-03-14T00:08:45;9.30;99.90
21090;DHT22;10703;51.020;6.128;2023-03-14T00:11:15;9.00;99.90
21090;DHT22;10703;51.020;6.128;2023-03-14T00:13:41;8.90;99.90
21090;DHT22;10703;51.020;6.128;2023-03-14T00:16:11;8.90;99.90
21090;DHT22;10703;51.020;6.128;2023-03-14T00:18:39;8.90;99.90
21090;DHT22;10703;51.020;6.128;2023-03-14T00:21:07;8.80;99.90
21090;DHT22;10703;51.020;6.128;2023-03-14T00:23:36;8.80;99.90
21090;DHT22;10703;51.020;6.128;2023-03-14T00:26:08;8.80;99.90
21090;DHT22;10703;51.020;6.128;2023-03-14T00:28:35;8.70;99.90
21090;DHT22;10703;51.020;6.128;2023-03-14T00:31:03;8.70;99.90
21090;DHT22;10703;51.020;6.128;2023-03-14T00:33:30;8.70;99.90
21090;DHT22;10703;51.020;6.128;2023-03-14T00:35:59;8.80;99.90
21090;DHT22;10703;51.020;6.128;2023-03-14T00:38:26;8.80;99.90
21090;DHT22;10703;51.020;6.128;2023-03-14T00:40:53;8.90;99.90
21090;DHT22;10703;51.020;6.128;2023-03-14T00:43:21;9.00;99.90
21090;DHT22;10703;51.020;6.128;2023-03-14T00:45:51;9.10;99.90
21090;DHT22;10703;51.020;6.128;2023-03-14T00:48:19;9.10;99.90
21090;DHT22;10703;51.020;6.128;2023-03-14T00:50:46;9.10;99.90
21090;DHT22;10703;51.020;6.128;2023-03-14T00:53:13;9.20;99.90
21090;DHT22;10703;51.020;6.128;2023-03-14T00:55:40;9.20;99.90
21090;DHT22;10703;51.020;6.128;2023-03-14T00:58:09;9.30;99.90
21090;DHT22;10703;51.020;6.128;2023-03-14T01:00:36;9.30;99.90
21090;DHT22;10703;51.020;6.128;2023-03-14T01:03:03;9.40;99.90
21090;DHT22;10703;51.020;6.128;2023-03-14T01:05:30;9.50;99.90
21090;DHT22;10703;51.020;6.128;2023-03-14T01:07:57;9.50;99.90
21090;DHT22;10703;51.020;6.128;2023-03-14T01:10:24;9.50;99.90
21090;DHT22;10703;51.020;6.128;2023-03-14T01:12:50;9.50;99.90
21090;DHT22;10703;51.020;6.128;2023-03-14T01:15:17;9.50;99.90
21090;DHT22;10703;51.020;6.128;2023-03-14T01:17:44;9.40;99.90
21090;DHT22;10703;51.020;6.128;2023-03-14T01:20:13;9.60;99.90
21090;DHT22;10703;51.020;6.128;2023-03-14T01:22:40;9.70;99.90
21090;DHT22;10703;51.020;6.128;2023-03-14T01:25:09;9.70;99.90
21090;DHT22;10703;51.020;6.128;2023-03-14T01:27:36;9.70;99.90
21090;DHT22;10703;51.020;6.128;2023-03-14T01:30:04;9.70;99.90
21090;DHT22;10703;51.020;6.128;2023-03-14T01:32:31;9.80;99.90
21090;DHT22;10703;51.020;6.128;2023-03-14T01:34:57;9.80;99.90
21090;DHT22;10703;51.020;6.128;2023-03-14T01:37:24;9.80;99.90
21090;DHT22;10703;51.020;6.128;2023-03-14T01:39:50;9.70;99.90
21090;DHT22;10703;51.020;6.128;2023-03-14T01:42:17;9.70;99.90
21090;DHT22;10703;51.020;6.128;2023-03-14T01:45:02;9.60;99.90
21090;DHT22;10703;51.020;6.128;2023-03-14T01:47:29;9.70;99.90
21090;DHT22;10703;51.020;6.128;2023-03-14T01:49:57;9.60;99.90
21090;DHT22;10703;51.020;6.128;2023-03-14T01:52:41;9.60;99.90
21090;DHT22;10703;51.020;6.128;2023-03-14T01:55:18;9.60;99.90
21090;DHT22;10703;51.020;6.128;2023-03-14T01:57:58;9.60;99.90
21090;DHT22;10703;51.020;6.128;2023-03-14T02:00:25;9.60;99.90
21090;DHT22;10703;51.020;6.128;2023-03-14T02:02:58;9.60;99.90
21090;DHT22;10703;51.020;6.128;2023-03-14T02:05:32;9.70;99.90
21090;DHT22;10703;51.020;6.128;2023-03-14T02:08:02;9.70;99.90
21090;DHT22;10703;51.020;6.128;2023-03-14T02:10:37;9.70;99.90
21090;DHT22;10703;51.020;6.128;2023-03-14T02:13:05;9.80;99.90
21090;DHT22;10703;51.020;6.128;2023-03-14T02:15:32;9.90;99.90
21090;DHT22;10703;51.020;6.128;2023-03-14T02:18:00;10.00;99.90
21090;DHT22;10703;51.020;6.128;2023-03-14T02:23:44;10.00;99.90
21090;DHT22;10703;51.020;6.128;2023-03-14T02:26:39;10.00;99.90
21090;DHT22;10703;51.020;6.128;2023-03-14T02:29:07;10.00;99.90
21090;DHT22;10703;51.020;6.128;2023-03-14T02:31:34;10.00;99.90
21090;DHT22;10703;51.020;6.128;2023-03-14T02:34:01;10.00;99.90
21090;DHT22;10703;51.020;6.128;2023-03-14T02:36:29;10.10;99.90
21090;DHT22;10703;51.020;6.128;2023-03-14T02:39:31;10.10;99.90
21090;DHT22;10703;51.020;6.128;2023-03-14T02:42:01;10.10;99.90
21090;DHT22;10703;51.020;6.128;2023-03-14T02:44:28;10.10;99.90
21090;DHT22;10703;51.020;6.128;2023-03-14T02:46:54;10.10;99.90
21090;DHT22;10703;51.020;6.128;2023-03-14T02:49:21;10.00;99.90
21090;DHT22;10703;51.020;6.128;2023-03-14T02:51:48;10.00;99.90
21090;DHT22;10703;51.020;6.128;2023-03-14T02:54:15;9.90;99.90
21090;DHT22;10703;51.020;6.128;2023-03-14T02:56:42;9.90;99.90
21090;DHT22;10703;51.020;6.128;2023-03-14T02:59:08;9.80;99.90
21090;DHT22;10703;51.020;6.128;2023-03-14T03:01:35;9.80;99.90
21090;DHT22;10703;51.020;6.128;2023-03-14T03:04:02;9.80;99.90
21090;DHT22;10703;51.020;6.128;2023-03-14T03:06:28;9.70;99.90
21090;DHT22;10703;51.020;6.128;2023-03-14T03:08:55;9.60;99.90
21090;DHT22;10703;51.020;6.128;2023-03-14T03:11:21;9.60;99.90
21090;DHT22;10703;51.020;6.128;2023-03-14T03:13:48;9.50;99.90
21090;DHT22;10703;51.020;6.128;2023-03-14T03:16:15;9.40;99.90
21090;DHT22;10703;51.020;6.128;2023-03-14T03:18:41;9.40;99.90
21090;DHT22;10703;51.020;6.128;2023-03-14T03:21:08;9.40;99.90
21090;DHT22;10703;51.020;6.128;2023-03-14T03:23:35;9.30;99.90
21090;DHT22;10703;51.020;6.128;2023-03-14T03:26:02;9.20;99.90
21090;DHT22;10703;51.020;6.128;2023-03-14T03:28:29;9.20;99.90
21090;DHT22;10703;51.020;6.128;2023-03-14T03:30:56;9.20;99.90
21090;DHT22;10703;51.020;6.128;2023-03-14T03:33:22;9.30;99.90
21090;DHT22;10703;51.020;6.128;2023-03-14T03:35:50;9.20;99.90
21090;DHT22;10703;51.020;6.128;2023-03-14T03:38:17;9.20;99.90
21090;DHT22;10703;51.020;6.128;2023-03-14T03:40:43;9.20;99.90
21090;DHT22;10703;51.020;6.128;2023-03-14T03:43:10;9.20;99.90
21090;DHT22;10703;51.020;6.128;2023-03-14T03:45:37;9.20;99.90
21090;DHT22;10703;51.020;6.128;2023-03-14T03:48:03;9.30;99.90
21090;DHT22;10703;51.020;6.128;2023-03-14T03:50:30;9.30;99.90
21090;DHT22;10703;51.020;6.128;2023-03-14T03:52:57;9.30;99.90
21090;DHT22;10703;51.020;6.128;2023-03-14T03:55:23;9.40;99.90
21090;DHT22;10703;51.020;6.128;2023-03-14T03:57:51;9.50;99.90
21090;DHT22;10703;51.020;6.128;2023-03-14T04:00:18;9.60;99.90
21090;DHT22;10703;51.020;6.128;2023-03-14T04:02:45;9.60;99.90
21090;DHT22;10703;51.020;6.128;2023-03-14T04:05:12;9.60;99.90
21090;DHT22;10703;51.020;6.128;2023-03-14T04:07:38;9.60;99.90
21090;DHT22;10703;51.020;6.128;2023-03-14T04:10:05;9.60;99.90
21090;DHT22;10703;51.020;6.128;2023-03-14T04:12:31;9.60;99.90
21090;DHT22;10703;51.020;6.128;2023-03-14T04:14:58;9.60;99.90
21090;DHT22;10703;51.020;6.128;2023-03-14T04:17:25;9.60;99.90
21090;DHT22;10703;51.020;6.128;2023-03-14T04:19:51;9.60;99.90
21090;DHT22;10703;51.020;6.128;2023-03-14T04:22:20;9.60;99.90
21090;DHT22;10703;51.020;6.128;2023-03-14T04:24:47;9.60;99.90
21090;DHT22;10703;51.020;6.128;2023-03-14T04:27:13;9.60;99.90
21090;DHT22;10703;51.020;6.128;2023-03-14T04:29:42;9.60;99.90
21090;DHT22;10703;51.020;6.128;2023-03-14T04:32:08;9.70;99.90
21090;DHT22;10703;51.020;6.128;2023-03-14T04:34:35;9.60;99.90
21090;DHT22;10703;51.020;6.128;2023-03-14T04:37:02;9.70;99.90
21090;DHT22;10703;51.020;6.128;2023-03-14T04:39:28;9.70;99.90
21090;DHT22;10703;51.020;6.128;2023-03-14T04:41:55;9.60;99.90
21090;DHT22;10703;51.020;6.128;2023-03-14T04:44:21;9.70;99.90
21090;DHT22;10703;51.020;6.128;2023-03-14T04:46:48;9.70;99.90
21090;DHT22;10703;51.020;6.128;2023-03-14T04:49:15;9.70;99.90
21090;DHT22;10703;51.020;6.128;2023-03-14T04:51:41;9.70;99.90
21090;DHT22;10703;51.020;6.128;2023-03-14T04:54:08;9.70;99.90
21090;DHT22;10703;51.020;6.128;2023-03-14T04:56:35;9.70;99.90
21090;DHT22;10703;51.020;6.128;2023-03-14T04:59:02;9.70;99.90
21090;DHT22;10703;51.020;6.128;2023-03-14T05:01:29;9.60;99.90
21090;DHT22;10703;51.020;6.128;2023-03-14T05:03:55;9.60;99.90
21090;DHT22;10703;51.020;6.128;2023-03-14T05:06:22;9.60;99.90
21090;DHT22;10703;51.020;6.128;2023-03-14T05:08:48;9.50;99.90
21090;DHT22;10703;51.020;6.128;2023-03-14T05:11:15;9.60;99.90
21090;DHT22;10703;51.020;6.128;2023-03-14T05:13:42;9.60;99.90
21090;DHT22;10703;51.020;6.128;2023-03-14T05:16:10;9.60;99.90
21090;DHT22;10703;51.020;6.128;2023-03-14T05:18:37;9.60;99.90
21090;DHT22;10703;51.020;6.128;2023-03-14T05:21:04;9.60;99.90
21090;DHT22;10703;51.020;6.128;2023-03-14T05:23:31;9.60;99.90
21090;DHT22;10703;51.020;6.128;2023-03-14T05:25:57;9.60;99.90
21090;DHT22;10703;51.020;6.128;2023-03-14T05:28:24;9.60;99.90
21090;DHT22;10703;51.020;6.128;2023-03-14T05:30:51;9.50;99.90
21090;DHT22;10703;51.020;6.128;2023-03-14T05:33:17;9.50;99.90
21090;DHT22;10703;51.020;6.128;2023-03-14T05:35:44;9.50;99.90
21090;DHT22;10703;51.020;6.128;2023-03-14T05:38:10;9.50;99.90
21090;DHT22;10703;51.020;6.128;2023-03-14T05:40:37;9.50;99.90
21090;DHT22;10703;51.020;6.128;2023-03-14T05:43:04;9.50;99.90
21090;DHT22;10703;51.020;6.128;2023-03-14T05:45:30;9.60;99.90
21090;DHT22;10703;51.020;6.128;2023-03-14T05:48:00;9.60;99.90
21090;DHT22;10703;51.020;6.128;2023-03-14T05:50:26;9.60;99.90
21090;DHT22;10703;51.020;6.128;2023-03-14T05:52:53;9.60;99.90
21090;DHT22;10703;51.020;6.128;2023-03-14T05:55:20;9.50;99.90
21090;DHT22;10703;51.020;6.128;2023-03-14T05:57:46;9.50;99.90
21090;DHT22;10703;51.020;6.128;2023-03-14T06:00:13;9.60;99.90
21090;DHT22;10703;51.020;6.128;2023-03-14T06:02:40;9.60;99.90
21090;DHT22;10703;51.020;6.128;2023-03-14T06:05:07;9.70;99.90
21090;DHT22;10703;51.020;6.128;2023-03-14T06:07:33;9.60;99.90
21090;DHT22;10703;51.020;6.128;2023-03-14T06:10:00;9.70;99.90
21090;DHT22;10703;51.020;6.128;2023-03-14T06:12:27;9.70;99.90
21090;DHT22;10703;51.020;6.128;2023-03-14T06:14:53;9.70;99.90
21090;DHT22;10703;51.020;6.128;2023-03-14T06:17:20;9.80;99.90
21090;DHT22;10703;51.020;6.128;2023-03-14T06:19:47;9.90;99.90
21090;DHT22;10703;51.020;6.128;2023-03-14T06:22:13;10.00;99.90
21090;DHT22;10703;51.020;6.128;2023-03-14T06:24:40;9.90;99.90
21090;DHT22;10703;51.020;6.128;2023-03-14T06:27:06;9.90;99.90
21090;DHT22;10703;51.020;6.128;2023-03-14T06:29:33;9.90;99.90
21090;DHT22;10703;51.020;6.128;2023-03-14T06:32:00;9.90;99.90
21090;DHT22;10703;51.020;6.128;2023-03-14T06:34:26;9.80;99.90
21090;DHT22;10703;51.020;6.128;2023-03-14T06:36:53;9.80;99.90
21090;DHT22;10703;51.020;6.128;2023-03-14T06:39:19;9.80;99.90
21090;DHT22;10703;51.020;6.128;2023-03-14T06:41:46;9.80;99.90
21090;DHT22;10703;51.020;6.128;2023-03-14T06:44:13;9.80;99.90
21090;DHT22;10703;51.020;6.128;2023-03-14T06:46:40;9.90;99.90
21090;DHT22;10703;51.020;6.128;2023-03-14T06:49:06;9.90;99.90
21090;DHT22;10703;51.020;6.128;2023-03-14T06:51:33;10.00;99.90
21090;DHT22;10703;51.020;6.128;2023-03-14T06:54:00;10.10;99.90
21090;DHT22;10703;51.020;6.128;2023-03-14T06:56:27;10.20;99.90
21090;DHT22;10703;51.020;6.128;2023-03-14T06:58:54;10.20;99.90
21090;DHT22;10703;51.020;6.128;2023-03-14T07:01:26;10.20;99.90
21090;DHT22;10703;51.020;6.128;2023-03-14T07:03:54;10.20;99.90
21090;DHT22;10703;51.020;6.128;2023-03-14T07:06:21;10.20;99.90
21090;DHT22;10703;51.020;6.128;2023-03-14T07:08:48;10.30;99.90
21090;DHT22;10703;51.020;6.128;2023-03-14T07:11:14;10.20;99.90
21090;DHT22;10703;51.020;6.128;2023-03-14T07:13:41;10.20;99.90
21090;DHT22;10703;51.020;6.128;2023-03-14T07:16:08;10.20;99.90
21090;DHT22;10703;51.020;6.128;2023-03-14T07:18:35;10.30;99.90
21090;DHT22;10703;51.020;6.128;2023-03-14T07:21:02;10.40;99.90
21090;DHT22;10703;51.020;6.128;2023-03-14T07:23:29;10.40;99.90
21090;DHT22;10703;51.020;6.128;2023-03-14T07:25:57;10.50;99.90
21090;DHT22;10703;51.020;6.128;2023-03-14T07:28:23;10.60;99.90
21090;DHT22;10703;51.020;6.128;2023-03-14T07:30:50;10.60;99.90
21090;DHT22;10703;51.020;6.128;2023-03-14T07:33:17;10.70;99.90
21090;DHT22;10703;51.020;6.128;2023-03-14T07:35:43;10.80;99.90
21090;DHT22;10703;51.020;6.128;2023-03-14T07:38:10;10.90;99.90
21090;DHT22;10703;51.020;6.128;2023-03-14T07:40:36;11.10;99.90
21090;DHT22;10703;51.020;6.128;2023-03-14T07:43:03;11.20;99.90
21090;DHT22;10703;51.020;6.128;2023-03-14T07:45:30;11.20;99.90
21090;DHT22;10703;51.020;6.128;2023-03-14T07:47:56;11.20;99.90
21090;DHT22;10703;51.020;6.128;2023-03-14T07:50:25;11.10;99.90
21090;DHT22;10703;51.020;6.128;2023-03-14T07:52:52;11.20;99.90
21090;DHT22;10703;51.020;6.128;2023-03-14T07:55:18;11.20;99.90
21090;DHT22;10703;51.020;6.128;2023-03-14T07:57:45;11.20;99.90
21090;DHT22;10703;51.020;6.128;2023-03-14T08:00:12;11.10;99.90
21090;DHT22;10703;51.020;6.128;2023-03-14T08:02:41;11.10;99.90
21090;DHT22;10703;51.020;6.128;2023-03-14T08:05:08;11.20;99.90
21090;DHT22;10703;51.020;6.128;2023-03-14T08:07:35;11.20;99.90
21090;DHT22;10703;51.020;6.128;2023-03-14T08:10:02;11.00;99.90
21090;DHT22;10703;51.020;6.128;2023-03-14T08:12:29;10.90;99.90
21090;DHT22;10703;51.020;6.128;2023-03-14T08:14:55;10.80;99.90
21090;DHT22;10703;51.020;6.128;2023-03-14T08:17:22;10.60;99.90
21090;DHT22;10703;51.020;6.128;2023-03-14T08:19:48;10.60;99.90
21090;DHT22;10703;51.020;6.128;2023-03-14T08:22:15;10.60;99.90
21090;DHT22;10703;51.020;6.128;2023-03-14T08:24:45;10.30;99.90
21090;DHT22;10703;51.020;6.128;2023-03-14T08:27:12;10.20;99.90
21090;DHT22;10703;51.020;6.128;2023-03-14T08:29:40;10.20;99.90
21090;DHT22;10703;51.020;6.128;2023-03-14T08:32:08;10.30;99.90
21090;DHT22;10703;51.020;6.128;2023-03-14T08:34:35;10.40;99.90
21090;DHT22;10703;51.020;6.128;2023-03-14T08:37:01;10.30;99.90
21090;DHT22;10703;51.020;6.128;2023-03-14T08:39:31;10.20;99.90
21090;DHT22;10703;51.020;6.128;2023-03-14T08:41:58;10.20;99.90
21090;DHT22;10703;51.020;6.128;2023-03-14T08:44:25;9.90;99.90
21090;DHT22;10703;51.020;6.128;2023-03-14T08:46:51;9.00;99.90
21090;DHT22;10703;51.020;6.128;2023-03-14T08:49:18;8.50;99.90
21090;DHT22;10703;51.020;6.128;2023-03-14T08:51:44;8.30;99.90
21090;DHT22;10703;51.020;6.128;2023-03-14T08:54:11;8.20;99.90
21090;DHT22;10703;51.020;6.128;2023-03-14T08:56:38;8.20;99.90
21090;DHT22;10703;51.020;6.128;2023-03-14T08:59:05;8.20;99.90
21090;DHT22;10703;51.020;6.128;2023-03-14T09:01:32;8.10;99.90
21090;DHT22;10703;51.020;6.128;2023-03-14T09:03:58;8.00;99.90
21090;DHT22;10703;51.020;6.128;2023-03-14T09:06:25;8.00;99.90
21090;DHT22;10703;51.020;6.128;2023-03-14T09:08:52;7.90;99.90
21090;DHT22;10703;51.020;6.128;2023-03-14T09:11:18;7.90;99.90
21090;DHT22;10703;51.020;6.128;2023-03-14T09:13:45;7.90;99.90
21090;DHT22;10703;51.020;6.128;2023-03-14T09:16:11;7.90;99.90
21090;DHT22;10703;51.020;6.128;2023-03-14T09:18:38;7.90;99.90
21090;DHT22;10703;51.020;6.128;2023-03-14T09:21:05;7.90;99.90
21090;DHT22;10703;51.020;6.128;2023-03-14T09:23:33;7.80;99.90
21090;DHT22;10703;51.020;6.128;2023-03-14T09:26:00;7.80;99.90
21090;DHT22;10703;51.020;6.128;2023-03-14T09:28:27;7.70;99.90
21090;DHT22;10703;51.020;6.128;2023-03-14T09:30:54;7.70;99.90
21090;DHT22;10703;51.020;6.128;2023-03-14T09:33:20;7.80;99.90
21090;DHT22;10703;51.020;6.128;2023-03-14T09:35:47;7.90;99.90
21090;DHT22;10703;51.020;6.128;2023-03-14T09:38:14;7.90;99.90
21090;DHT22;10703;51.020;6.128;2023-03-14T09:40:41;8.00;99.90
21090;DHT22;10703;51.020;6.128;2023-03-14T09:43:14;8.10;99.90
21090;DHT22;10703;51.020;6.128;2023-03-14T09:45:41;8.30;99.90
21090;DHT22;10703;51.020;6.128;2023-03-14T09:48:16;8.40;99.90
21090;DHT22;10703;51.020;6.128;2023-03-14T09:50:53;8.30;99.90
21090;DHT22;10703;51.020;6.128;2023-03-14T09:53:24;8.20;99.90
21090;DHT22;10703;51.020;6.128;2023-03-14T09:55:52;8.10;99.90
21090;DHT22;10703;51.020;6.128;2023-03-14T09:58:21;8.10;99.90
21090;DHT22;10703;51.020;6.128;2023-03-14T10:00:55;8.10;99.90
21090;DHT22;10703;51.020;6.128;2023-03-14T10:03:31;8.10;99.90
21090;DHT22;10703;51.020;6.128;2023-03-14T10:05:58;7.90;99.90
21090;DHT22;10703;51.020;6.128;2023-03-14T10:08:25;7.90;99.90
21090;DHT22;10703;51.020;6.128;2023-03-14T10:10:52;7.90;99.90
21090;DHT22;10703;51.020;6.128;2023-03-14T10:13:27;7.90;99.90
21090;DHT22;10703;51.020;6.128;2023-03-14T10:16:04;7.80;99.90
21090;DHT22;10703;51.020;6.128;2023-03-14T10:18:33;7.90;99.90
21090;DHT22;10703;51.020;6.128;2023-03-14T10:21:27;8.10;99.90
21090;DHT22;10703;51.020;6.128;2023-03-14T10:23:55;8.50;99.90
21090;DHT22;10703;51.020;6.128;2023-03-14T10:26:34;8.60;99.90
21090;DHT22;10703;51.020;6.128;2023-03-14T10:29:11;8.50;99.90
21090;DHT22;10703;51.020;6.128;2023-03-14T10:32:10;8.30;99.90
21090;DHT22;10703;51.020;6.128;2023-03-14T10:37:55;9.30;99.90
21090;DHT22;10703;51.020;6.128;2023-03-14T10:40:31;9.80;99.90
21090;DHT22;10703;51.020;6.128;2023-03-14T10:42:58;9.40;99.90
21090;DHT22;10703;51.020;6.128;2023-03-14T10:45:44;9.20;99.90
21090;DHT22;10703;51.020;6.128;2023-03-14T10:48:28;9.20;99.90
21090;DHT22;10703;51.020;6.128;2023-03-14T10:51:02;9.20;99.90
21090;DHT22;10703;51.020;6.128;2023-03-14T10:53:33;9.10;99.90
21090;DHT22;10703;51.020;6.128;2023-03-14T10:56:03;9.00;99.90
21090;DHT22;10703;51.020;6.128;2023-03-14T10:58:37;9.10;99.90
21090;DHT22;10703;51.020;6.128;2023-03-14T11:01:11;9.00;99.90
21090;DHT22;10703;51.020;6.128;2023-03-14T11:03:47;8.80;99.90
21090;DHT22;10703;51.020;6.128;2023-03-14T11:06:28;8.70;99.90
21090;DHT22;10703;51.020;6.128;2023-03-14T11:09:05;8.30;99.90
21090;DHT22;10703;51.020;6.128;2023-03-14T11:11:33;7.30;99.90
21090;DHT22;10703;51.020;6.128;2023-03-14T11:14:27;7.10;99.90
21090;DHT22;10703;51.020;6.128;2023-03-14T11:17:12;6.90;99.90
21090;DHT22;10703;51.020;6.128;2023-03-14T11:22:40;6.60;99.90
21090;DHT22;10703;51.020;6.128;2023-03-14T11:25:41;6.60;99.90
21090;DHT22;10703;51.020;6.128;2023-03-14T11:30:53;7.00;99.90
21090;DHT22;10703;51.020;6.128;2023-03-14T11:33:56;7.00;99.90
21090;DHT22;10703;51.020;6.128;2023-03-14T11:36:46;7.10;99.90
21090;DHT22;10703;51.020;6.128;2023-03-14T11:39:16;7.20;99.90
21090;DHT22;10703;51.020;6.128;2023-03-14T11:41:46;7.40;99.90
21090;DHT22;10703;51.020;6.128;2023-03-14T11:44:23;7.80;99.90
21090;DHT22;10703;51.020;6.128;2023-03-14T11:46:56;8.00;99.90
21090;DHT22;10703;51.020;6.128;2023-03-14T11:50:02;8.00;99.90
21090;DHT22;10703;51.020;6.128;2023-03-14T11:52:47;8.20;99.90
21090;DHT22;10703;51.020;6.128;2023-03-14T11:55:35;8.10;99.90
21090;DHT22;10703;51.020;6.128;2023-03-14T11:58:19;7.80;99.90
21090;DHT22;10703;51.020;6.128;2023-03-14T12:00:49;7.70;99.90
21090;DHT22;10703;51.020;6.128;2023-03-14T12:08:54;7.80;99.90
21090;DHT22;10703;51.020;6.128;2023-03-14T12:11:54;7.90;99.90
21090;DHT22;10703;51.020;6.128;2023-03-14T12:14:27;8.20;99.90
21090;DHT22;10703;51.020;6.128;2023-03-14T12:17:39;8.50;99.90
21090;DHT22;10703;51.020;6.128;2023-03-14T12:19:45;8.90;99.90
21090;DHT22;10703;51.020;6.128;2023-03-14T12:22:26;9.00;99.90
21090;DHT22;10703;51.020;6.128;2023-03-14T12:24:59;9.30;99.90
21090;DHT22;10703;51.020;6.128;2023-03-14T12:27:47;9.30;99.90
21090;DHT22;10703;51.020;6.128;2023-03-14T12:30:24;9.00;99.90
21090;DHT22;10703;51.020;6.128;2023-03-14T12:41:02;8.90;99.90
21090;DHT22;10703;51.020;6.128;2023-03-14T12:43:31;9.00;99.90
21090;DHT22;10703;51.020;6.128;2023-03-14T12:46:25;8.90;99.90
21090;DHT22;10703;51.020;6.128;2023-03-14T12:51:39;8.90;99.90
21090;DHT22;10703;51.020;6.128;2023-03-14T12:54:44;8.80;99.90
21090;DHT22;10703;51.020;6.128;2023-03-14T12:59:54;8.30;99.90
21090;DHT22;10703;51.020;6.128;2023-03-14T13:02:26;8.00;99.90
21090;DHT22;10703;51.020;6.128;2023-03-14T13:05:01;7.20;99.90
21090;DHT22;10703;51.020;6.128;2023-03-14T13:07:31;6.70;99.90
21090;DHT22;10703;51.020;6.128;2023-03-14T13:10:02;6.50;99.90
21090;DHT22;10703;51.020;6.128;2023-03-14T13:12:37;6.40;99.90
21090;DHT22;10703;51.020;6.128;2023-03-14T13:17:50;6.00;99.90
21090;DHT22;10703;51.020;6.128;2023-03-14T13:20:35;6.00;99.90
21090;DHT22;10703;51.020;6.128;2023-03-14T13:23:03;6.00;99.90
21090;DHT22;10703;51.020;6.128;2023-03-14T13:25:33;6.20;99.90
21090;DHT22;10703;51.020;6.128;2023-03-14T13:28:01;6.30;99.90
21090;DHT22;10703;51.020;6.128;2023-03-14T13:30:38;6.50;99.90
21090;DHT22;10703;51.020;6.128;2023-03-14T13:33:06;6.60;99.90
21090;DHT22;10703;51.020;6.128;2023-03-14T13:35:45;6.70;99.90
21090;DHT22;10703;51.020;6.128;2023-03-14T13:38:16;6.90;99.90
21090;DHT22;10703;51.020;6.128;2023-03-14T13:40:45;7.00;99.90
21090;DHT22;10703;51.020;6.128;2023-03-14T13:43:17;6.90;99.90
21090;DHT22;10703;51.020;6.128;2023-03-14T13:48:16;7.00;99.90
21090;DHT22;10703;51.020;6.128;2023-03-14T13:50:51;6.90;99.90
21090;DHT22;10703;51.020;6.128;2023-03-14T13:53:20;6.90;99.90
21090;DHT22;10703;51.020;6.128;2023-03-14T13:55:46;7.00;99.90
21090;DHT22;10703;51.020;6.128;2023-03-14T13:58:21;7.10;99.90
21090;DHT22;10703;51.020;6.128;2023-03-14T14:01:14;7.30;99.90
21090;DHT22;10703;51.020;6.128;2023-03-14T14:03:44;7.50;99.90
21090;DHT22;10703;51.020;6.128;2023-03-14T14:06:28;7.60;99.90
21090;DHT22;10703;51.020;6.128;2023-03-14T14:08:56;7.60;99.90
21090;DHT22;10703;51.020;6.128;2023-03-14T14:11:38;7.60;99.90
21090;DHT22;10703;51.020;6.128;2023-03-14T14:14:40;7.70;99.90
21090;DHT22;10703;51.020;6.128;2023-03-14T14:17:12;7.60;99.90
21090;DHT22;10703;51.020;6.128;2023-03-14T14:19:41;7.60;99.90
21090;DHT22;10703;51.020;6.128;2023-03-14T14:22:11;7.50;99.90
21090;DHT22;10703;51.020;6.128;2023-03-14T14:24:38;7.60;99.90
21090;DHT22;10703;51.020;6.128;2023-03-14T14:27:16;7.40;99.90
21090;DHT22;10703;51.020;6.128;2023-03-14T14:29:44;7.50;99.90
21090;DHT22;10703;51.020;6.128;2023-03-14T14:32:22;7.60;99.90
21090;DHT22;10703;51.020;6.128;2023-03-14T14:34:57;7.40;99.90
21090;DHT22;10703;51.020;6.128;2023-03-14T14:37:33;7.40;99.90
21090;DHT22;10703;51.020;6.128;2023-03-14T14:40:19;7.50;99.90
21090;DHT22;10703;51.020;6.128;2023-03-14T14:42:47;7.60;99.90
21090;DHT22;10703;51.020;6.128;2023-03-14T14:45:23;7.60;99.90
21090;DHT22;10703;51.020;6.128;2023-03-14T14:52:59;8.00;99.90
21090;DHT22;10703;51.020;6.128;2023-03-14T14:55:38;8.00;99.90
21090;DHT22;10703;51.020;6.128;2023-03-14T14:58:24;8.00;99.90
21090;DHT22;10703;51.020;6.128;2023-03-14T15:03:20;8.00;99.90
21090;DHT22;10703;51.020;6.128;2023-03-14T15:05:47;8.10;99.90
21090;DHT22;10703;51.020;6.128;2023-03-14T15:08:14;8.20;99.90
21090;DHT22;10703;51.020;6.128;2023-03-14T15:10:40;8.20;99.90
21090;DHT22;10703;51.020;6.128;2023-03-14T15:13:07;8.20;99.90
21090;DHT22;10703;51.020;6.128;2023-03-14T15:15:34;8.20;99.90
21090;DHT22;10703;51.020;6.128;2023-03-14T15:18:01;8.10;99.90
21090;DHT22;10703;51.020;6.128;2023-03-14T15:20:27;8.10;99.90
21090;DHT22;10703;51.020;6.128;2023-03-14T15:22:54;8.00;99.90
21090;DHT22;10703;51.020;6.128;2023-03-14T15:25:21;7.90;99.90
21090;DHT22;10703;51.020;6.128;2023-03-14T15:28:17;7.80;99.90
21090;DHT22;10703;51.020;6.128;2023-03-14T15:30:54;7.70;99.90
21090;DHT22;10703;51.020;6.128;2023-03-14T15:33:22;7.50;99.90
21090;DHT22;10703;51.020;6.128;2023-03-14T15:35:49;7.50;99.90
21090;DHT22;10703;51.020;6.128;2023-03-14T15:38:18;7.40;99.90
21090;DHT22;10703;51.020;6.128;2023-03-14T15:40:50;7.40;99.90
21090;DHT22;10703;51.020;6.128;2023-03-14T15:43:17;7.40;99.90
21090;DHT22;10703;51.020;6.128;2023-03-14T15:45:44;7.40;99.90
21090;DHT22;10703;51.020;6.128;2023-03-14T15:48:15;7.50;99.90
21090;DHT22;10703;51.020;6.128;2023-03-14T15:50:42;7.50;99.90
21090;DHT22;10703;51.020;6.128;2023-03-14T15:53:10;7.50;99.90
21090;DHT22;10703;51.020;6.128;2023-03-14T15:55:36;7.40;99.90
21090;DHT22;10703;51.020;6.128;2023-03-14T15:58:03;7.40;99.90
21090;DHT22;10703;51.020;6.128;2023-03-14T16:00:30;7.40;99.90
21090;DHT22;10703;51.020;6.128;2023-03-14T16:02:57;7.40;99.90
21090;DHT22;10703;51.020;6.128;2023-03-14T16:05:23;7.40;99.90
21090;DHT22;10703;51.020;6.128;2023-03-14T16:07:50;7.40;99.90
21090;DHT22;10703;51.020;6.128;2023-03-14T16:10:17;7.40;99.90
21090;DHT22;10703;51.020;6.128;2023-03-14T16:12:43;7.30;99.90
21090;DHT22;10703;51.020;6.128;2023-03-14T16:15:10;7.30;99.90
21090;DHT22;10703;51.020;6.128;2023-03-14T16:17:37;7.20;99.90
21090;DHT22;10703;51.020;6.128;2023-03-14T16:20:06;7.20;99.90
21090;DHT22;10703;51.020;6.128;2023-03-14T16:22:34;7.10;99.90
21090;DHT22;10703;51.020;6.128;2023-03-14T16:25:03;7.00;99.90
21090;DHT22;10703;51.020;6.128;2023-03-14T16:27:30;7.00;99.90
21090;DHT22;10703;51.020;6.128;2023-03-14T16:29:58;6.90;99.90
21090;DHT22;10703;51.020;6.128;2023-03-14T16:32:28;6.90;99.90
21090;DHT22;10703;51.020;6.128;2023-03-14T16:34:55;6.80;99.90
21090;DHT22;10703;51.020;6.128;2023-03-14T16:37:25;6.80;98.00
21090;DHT22;10703;51.020;6.128;2023-03-14T16:39:53;6.80;99.90
21090;DHT22;10703;51.020;6.128;2023-03-14T16:42:39;6.60;99.90
21090;DHT22;10703;51.020;6.128;2023-03-14T16:45:27;6.60;99.90